createdAt,value
2019-05-12T00:00:43.275Z,17.10
2019-05-12T00:03:13.855Z,17.00
2019-05-12T00:05:44.415Z,17.00
2019-05-12T00:08:15.041Z,17.00
2019-05-12T00:10:47.750Z,17.00
2019-05-12T00:13:18.995Z,16.90
2019-05-12T00:15:49.772Z,16.90
2019-05-12T00:18:20.319Z,16.90
2019-05-12T00:20:50.887Z,16.90
2019-05-12T00:23:26.977Z,16.90
2019-05-12T00:25:54.008Z,16.90
2019-05-12T00:28:24.562Z,16.90
2019-05-12T00:30:55.062Z,16.90
2019-05-12T00:33:27.989Z,17.00
2019-05-12T00:35:58.770Z,17.00
2019-05-12T00:38:29.568Z,17.00
2019-05-12T00:41:00.108Z,17.00
2019-05-12T00:43:30.660Z,17.00
2019-05-12T00:46:01.202Z,17.00
2019-05-12T00:48:31.797Z,17.00
2019-05-12T00:51:02.366Z,17.00
2019-05-12T00:53:39.847Z,17.00
2019-05-12T00:56:05.235Z,17.00
2019-05-12T00:58:38.113Z,17.00
2019-05-12T01:01:08.313Z,17.00
2019-05-12T01:03:38.953Z,17.00
2019-05-12T01:06:09.498Z,17.00
2019-05-12T01:08:40.162Z,17.00
2019-05-12T01:11:10.744Z,17.00
2019-05-12T01:13:41.424Z,17.00
2019-05-12T01:16:11.980Z,17.00
2019-05-12T01:18:42.561Z,17.00
2019-05-12T01:21:13.172Z,17.00
2019-05-12T01:23:53.750Z,17.00
2019-05-12T01:26:17.926Z,17.00
2019-05-12T01:28:48.916Z,17.00
2019-05-12T01:31:21.208Z,17.00
2019-05-12T01:33:51.779Z,16.90
2019-05-12T01:36:22.319Z,17.00
2019-05-12T01:38:52.899Z,17.00
2019-05-12T01:41:23.484Z,17.00
2019-05-12T01:43:54.047Z,16.90
2019-05-12T01:46:24.595Z,16.90
2019-05-12T01:48:55.171Z,17.00
2019-05-12T01:51:28.317Z,16.90
2019-05-12T01:54:10.554Z,16.90
2019-05-12T01:56:30.314Z,16.90
2019-05-12T01:59:00.875Z,16.90
2019-05-12T02:01:33.645Z,16.90
2019-05-12T02:04:04.214Z,16.90
2019-05-12T02:06:34.904Z,16.90
2019-05-12T02:09:10.591Z,16.90
2019-05-12T02:11:41.237Z,16.90
2019-05-12T02:14:11.771Z,16.90
2019-05-12T02:16:42.338Z,16.90
2019-05-12T02:19:12.866Z,16.90
2019-05-12T02:21:43.518Z,16.90
2019-05-12T02:24:26.393Z,16.90
2019-05-12T02:26:48.659Z,16.90
2019-05-12T02:29:19.490Z,16.90
2019-05-12T02:31:50.374Z,16.90
2019-05-12T02:34:20.977Z,16.90
2019-05-12T02:36:51.518Z,16.90
2019-05-12T02:39:24.692Z,16.90
2019-05-12T02:41:54.421Z,16.80
2019-05-12T02:44:25.054Z,16.80
2019-05-12T02:46:55.580Z,16.80
2019-05-12T02:49:26.100Z,16.80
2019-05-12T02:51:56.755Z,16.80
2019-05-12T02:54:49.514Z,16.80
2019-05-12T02:57:00.322Z,16.80
2019-05-12T02:59:34.762Z,16.80
2019-05-12T03:02:06.456Z,16.80
2019-05-12T03:04:40.667Z,16.80
2019-05-12T03:07:15.409Z,16.80
2019-05-12T03:09:47.354Z,16.80
2019-05-12T03:12:17.914Z,16.80
2019-05-12T03:14:48.431Z,16.80
2019-05-12T03:17:19.010Z,16.80
2019-05-12T03:19:49.553Z,16.80
2019-05-12T03:22:20.287Z,16.80
2019-05-12T03:25:06.584Z,16.80
2019-05-12T03:27:25.570Z,16.70
2019-05-12T03:29:56.446Z,16.70
2019-05-12T03:32:28.243Z,16.70
2019-05-12T03:34:58.990Z,16.70
2019-05-12T03:37:31.383Z,16.70
2019-05-12T03:40:05.114Z,16.70
2019-05-12T03:42:35.648Z,16.70
2019-05-12T03:45:07.402Z,16.70
2019-05-12T03:47:37.991Z,16.70
2019-05-12T03:50:08.746Z,16.80
2019-05-12T03:52:40.692Z,16.80
2019-05-12T03:55:27.324Z,16.70
2019-05-12T03:57:45.080Z,16.80
2019-05-12T04:00:16.174Z,16.70
2019-05-12T04:02:46.879Z,16.70
2019-05-12T04:05:17.400Z,16.80
2019-05-12T04:07:48.002Z,16.80
2019-05-12T04:10:18.559Z,16.80
2019-05-12T04:12:49.178Z,16.80
2019-05-12T04:15:19.729Z,16.80
2019-05-12T04:17:50.306Z,16.80
2019-05-12T04:20:20.845Z,16.80
2019-05-12T04:22:54.757Z,16.80
2019-05-12T04:25:44.756Z,16.80
2019-05-12T04:27:58.896Z,16.80
2019-05-12T04:30:29.418Z,16.80
2019-05-12T04:33:00.004Z,16.80
2019-05-12T04:35:30.540Z,16.80
2019-05-12T04:38:04.400Z,16.80
2019-05-12T04:40:36.233Z,16.80
2019-05-12T04:43:07.122Z,16.80
2019-05-12T04:45:38.701Z,16.80
2019-05-12T04:48:09.274Z,16.90
2019-05-12T04:50:39.847Z,16.90
2019-05-12T04:53:10.429Z,16.90
2019-05-12T04:55:44.231Z,16.90
2019-05-12T04:58:15.760Z,16.90
2019-05-12T05:00:45.709Z,16.90
2019-05-12T05:03:17.452Z,16.90
2019-05-12T05:05:48.009Z,16.90
2019-05-12T05:08:19.773Z,17.00
2019-05-12T05:10:51.037Z,17.00
2019-05-12T05:13:24.470Z,17.00
2019-05-12T05:15:55.445Z,17.00
2019-05-12T05:18:27.021Z,17.00
2019-05-12T05:20:57.659Z,17.00
2019-05-12T05:23:28.242Z,17.00
2019-05-12T05:25:59.182Z,17.10
2019-05-12T05:28:29.729Z,17.10
2019-05-12T05:31:00.398Z,17.10
2019-05-12T05:33:30.973Z,17.10
2019-05-12T05:36:03.491Z,17.20
2019-05-12T05:38:34.296Z,17.20
2019-05-12T05:41:10.295Z,17.20
2019-05-12T05:43:37.520Z,17.20
2019-05-12T05:46:08.364Z,17.20
2019-05-12T05:48:39.085Z,17.20
2019-05-12T05:51:09.809Z,17.30
2019-05-12T05:53:40.837Z,17.30
2019-05-12T05:56:11.412Z,17.30
2019-05-12T05:58:48.934Z,17.30
2019-05-12T06:01:14.484Z,17.40
2019-05-12T06:03:45.060Z,17.40
2019-05-12T06:06:15.733Z,17.40
2019-05-12T06:08:57.657Z,17.40
2019-05-12T06:11:29.735Z,17.50
2019-05-12T06:14:03.074Z,17.50
2019-05-12T06:16:34.044Z,17.50
2019-05-12T06:19:06.842Z,17.50
2019-05-12T06:21:38.484Z,17.50
2019-05-12T06:24:15.822Z,17.60
2019-05-12T06:26:55.546Z,17.60
2019-05-12T06:29:20.339Z,17.70
2019-05-12T06:31:46.092Z,17.70
2019-05-12T06:34:20.785Z,17.80
2019-05-12T06:36:49.047Z,17.80
2019-05-12T06:39:20.896Z,17.90
2019-05-12T06:41:55.171Z,17.90
2019-05-12T06:44:24.106Z,17.90
2019-05-12T06:47:02.243Z,17.90
2019-05-12T06:49:27.015Z,17.90
2019-05-12T06:52:01.453Z,18.00
2019-05-12T06:54:29.859Z,18.00
2019-05-12T06:57:18.807Z,18.00
2019-05-12T06:59:33.878Z,18.00
2019-05-12T07:02:04.490Z,18.00
2019-05-12T07:04:35.043Z,18.00
2019-05-12T07:07:05.929Z,18.00
2019-05-12T07:09:50.098Z,18.00
2019-05-12T07:12:10.216Z,18.00
2019-05-12T07:14:40.849Z,18.00
2019-05-12T07:17:35.684Z,18.00
2019-05-12T07:20:04.218Z,18.00
2019-05-12T07:22:43.862Z,18.00
2019-05-12T07:25:08.423Z,18.00
2019-05-12T07:27:39.914Z,18.00
2019-05-12T07:30:13.625Z,18.00
2019-05-12T07:32:45.152Z,18.10
2019-05-12T07:35:15.798Z,18.10
2019-05-12T07:37:48.342Z,18.10
2019-05-12T07:40:24.352Z,18.10
2019-05-12T07:42:54.503Z,18.10
2019-05-12T07:45:25.412Z,18.10
2019-05-12T07:47:59.396Z,18.10
2019-05-12T07:50:28.775Z,18.10
2019-05-12T07:52:59.409Z,18.20
2019-05-12T07:55:29.957Z,18.20
2019-05-12T07:58:10.306Z,18.20
2019-05-12T08:00:33.955Z,18.30
2019-05-12T08:03:14.698Z,18.30
2019-05-12T08:05:37.035Z,18.40
2019-05-12T08:08:10.898Z,18.40
2019-05-12T08:10:40.202Z,18.50
2019-05-12T08:13:10.823Z,18.50
2019-05-12T08:15:45.742Z,18.50
2019-05-12T08:18:14.100Z,18.50
2019-05-12T08:20:44.805Z,18.50
2019-05-12T08:23:15.414Z,18.60
2019-05-12T08:25:46.193Z,18.60
2019-05-12T08:28:19.309Z,18.70
2019-05-12T08:30:52.129Z,18.70
2019-05-12T08:33:23.774Z,18.70
2019-05-12T08:35:55.352Z,18.70
2019-05-12T08:38:27.269Z,18.80
2019-05-12T08:40:57.972Z,18.80
2019-05-12T08:43:28.855Z,18.90
2019-05-12T08:46:00.305Z,18.90
2019-05-12T08:48:34.152Z,19.00
2019-05-12T08:51:13.218Z,19.10
2019-05-12T08:53:36.490Z,19.20
2019-05-12T08:56:13.331Z,19.40
2019-05-12T08:58:49.416Z,19.60
2019-05-12T09:01:13.778Z,19.90
2019-05-12T09:03:46.402Z,20.10
2019-05-12T09:06:19.888Z,20.40
2019-05-12T09:08:51.157Z,20.60
2019-05-12T09:11:24.217Z,20.80
2019-05-12T09:14:00.478Z,21.00
2019-05-12T09:16:27.792Z,21.00
2019-05-12T09:18:58.626Z,21.10
2019-05-12T09:21:32.022Z,21.10
2019-05-12T09:24:04.239Z,21.00
2019-05-12T09:26:34.668Z,21.00
2019-05-12T09:29:07.453Z,21.00
2019-05-12T09:31:37.667Z,21.00
2019-05-12T09:34:11.771Z,20.90
2019-05-12T09:36:40.569Z,20.90
2019-05-12T09:39:11.251Z,20.80
2019-05-12T09:41:46.464Z,20.80
2019-05-12T09:44:14.393Z,20.70
2019-05-12T09:46:45.046Z,20.60
2019-05-12T09:49:17.112Z,20.50
2019-05-12T09:51:47.681Z,20.50
2019-05-12T09:54:18.478Z,20.40
2019-05-12T09:56:59.643Z,20.40
2019-05-12T09:59:28.293Z,20.40
2019-05-12T10:01:58.930Z,20.40
2019-05-12T10:04:29.493Z,20.40
2019-05-12T10:07:01.115Z,20.30
2019-05-12T10:09:33.522Z,20.30
2019-05-12T10:12:05.597Z,20.30
2019-05-12T10:14:40.848Z,20.30
2019-05-12T10:17:10.101Z,20.30
2019-05-12T10:19:40.758Z,20.30
2019-05-12T10:22:11.413Z,20.30
2019-05-12T10:24:55.952Z,20.20
2019-05-12T10:27:27.220Z,20.20
2019-05-12T10:29:55.857Z,20.20
2019-05-12T10:32:26.497Z,20.20
2019-05-12T10:34:57.110Z,20.20
2019-05-12T10:37:29.400Z,20.20
2019-05-12T10:40:03.543Z,20.20
2019-05-12T10:42:33.720Z,20.20
2019-05-12T10:45:05.531Z,20.20
2019-05-12T10:47:36.238Z,20.20
2019-05-12T10:50:07.623Z,20.20
2019-05-12T10:52:39.054Z,20.20
2019-05-12T10:55:13.341Z,20.20
2019-05-12T10:57:44.296Z,20.20
2019-05-12T11:00:19.884Z,20.20
2019-05-12T11:02:50.541Z,20.20
2019-05-12T11:05:23.313Z,20.20
2019-05-12T11:07:54.622Z,20.20
2019-05-12T11:10:25.387Z,20.20
2019-05-12T11:12:59.265Z,20.20
2019-05-12T11:15:29.595Z,20.10
2019-05-12T11:18:11.730Z,20.10
2019-05-12T11:20:44.876Z,20.00
2019-05-12T11:23:14.686Z,20.00
2019-05-12T11:25:45.235Z,20.10
2019-05-12T11:28:15.798Z,20.10
2019-05-12T11:30:46.375Z,20.10
2019-05-12T11:33:17.032Z,20.10
2019-05-12T11:35:47.602Z,20.10
2019-05-12T11:38:18.174Z,20.20
2019-05-12T11:40:48.804Z,20.20
2019-05-12T11:43:19.369Z,20.20
2019-05-12T11:45:50.025Z,20.20
2019-05-12T11:48:23.359Z,20.20
2019-05-12T11:50:54.480Z,20.20
2019-05-12T11:53:30.644Z,20.20
2019-05-12T11:56:02.407Z,20.20
2019-05-12T11:58:30.271Z,20.30
2019-05-12T12:01:04.733Z,20.30
2019-05-12T12:03:36.910Z,20.30
2019-05-12T12:06:28.486Z,20.30
2019-05-12T12:08:59.127Z,20.30
2019-05-12T12:11:29.777Z,20.30
2019-05-12T12:14:06.385Z,20.30
2019-05-12T12:16:34.110Z,20.30
2019-05-12T12:19:05.767Z,20.30
2019-05-12T12:21:40.490Z,20.30
2019-05-12T12:24:09.208Z,20.30
2019-05-12T12:26:39.823Z,20.20
2019-05-12T12:29:10.417Z,20.20
2019-05-12T12:31:51.548Z,20.20
2019-05-12T12:34:29.372Z,20.20
2019-05-12T12:36:54.682Z,20.20
2019-05-12T12:39:25.215Z,20.20
2019-05-12T12:42:00.541Z,20.20
2019-05-12T12:44:28.311Z,20.20
2019-05-12T12:47:00.099Z,20.20
2019-05-12T12:49:33.738Z,20.20
2019-05-12T12:52:03.536Z,20.20
2019-05-12T12:54:34.082Z,20.20
2019-05-12T12:57:08.107Z,20.10
2019-05-12T12:59:37.151Z,20.10
2019-05-12T13:02:09.302Z,20.00
2019-05-12T13:04:46.018Z,20.10
2019-05-12T13:07:13.711Z,20.10
2019-05-12T13:09:44.313Z,20.00
2019-05-12T13:12:19.515Z,20.10
2019-05-12T13:14:47.398Z,20.10
2019-05-12T13:17:17.960Z,20.10
2019-05-12T13:19:53.607Z,20.10
2019-05-12T13:22:21.925Z,20.10
2019-05-12T13:24:53.140Z,20.10
2019-05-12T13:27:25.213Z,20.10
2019-05-12T13:29:56.129Z,20.10
2019-05-12T13:32:32.189Z,20.10
2019-05-12T13:35:00.602Z,20.10
2019-05-12T13:37:31.263Z,20.10
2019-05-12T13:40:01.796Z,20.10
2019-05-12T13:42:35.816Z,20.00
2019-05-12T13:45:05.330Z,20.00
2019-05-12T13:47:39.814Z,20.00
2019-05-12T13:50:13.364Z,20.00
2019-05-12T13:52:42.100Z,20.00
2019-05-12T13:55:13.514Z,20.00
2019-05-12T13:57:52.279Z,20.00
2019-05-12T14:00:16.863Z,20.00
2019-05-12T14:02:49.018Z,20.00
2019-05-12T14:05:19.620Z,20.10
2019-05-12T14:07:55.692Z,20.10
2019-05-12T14:10:24.507Z,20.10
2019-05-12T14:12:55.500Z,20.10
2019-05-12T14:15:26.238Z,20.00
2019-05-12T14:17:56.912Z,20.10
2019-05-12T14:20:27.495Z,20.00
2019-05-12T14:22:58.366Z,20.00
2019-05-12T14:25:32.237Z,20.10
2019-05-12T14:28:05.570Z,20.00
2019-05-12T14:30:33.726Z,20.10
2019-05-12T14:33:04.447Z,20.10
2019-05-12T14:35:40.656Z,20.10
2019-05-12T14:38:07.421Z,20.10
2019-05-12T14:40:40.280Z,20.10
2019-05-12T14:43:17.006Z,20.10
2019-05-12T14:45:44.046Z,20.10
2019-05-12T14:48:14.683Z,20.10
2019-05-12T14:50:45.362Z,20.10
2019-05-12T14:53:15.904Z,20.10
2019-05-12T14:55:46.581Z,20.10
2019-05-12T14:58:20.574Z,20.10
2019-05-12T15:00:50.848Z,20.20
2019-05-12T15:03:24.164Z,20.20
2019-05-12T15:05:54.703Z,20.20
2019-05-12T15:08:35.298Z,20.30
2019-05-12T15:10:57.846Z,20.30
2019-05-12T15:13:28.446Z,20.30
2019-05-12T15:16:00.204Z,20.40
2019-05-12T15:18:30.858Z,20.40
2019-05-12T15:21:03.413Z,20.40
2019-05-12T15:23:37.282Z,20.40
2019-05-12T15:26:09.757Z,20.40
2019-05-12T15:28:38.724Z,20.50
2019-05-12T15:31:09.424Z,20.50
2019-05-12T15:33:40.165Z,20.50
2019-05-12T15:36:10.728Z,20.50
2019-05-12T15:38:43.212Z,20.50
2019-05-12T15:41:16.821Z,20.50
2019-05-12T15:43:48.933Z,20.50
2019-05-12T15:46:18.302Z,20.50
2019-05-12T15:48:48.978Z,20.50
2019-05-12T15:51:19.573Z,20.50
2019-05-12T15:53:50.146Z,20.50
2019-05-12T15:56:23.842Z,20.50
2019-05-12T15:58:55.822Z,20.50
2019-05-12T16:01:25.455Z,20.50
2019-05-12T16:03:56.066Z,20.60
2019-05-12T16:06:26.653Z,20.60
2019-05-12T16:08:57.832Z,20.60
2019-05-12T16:11:28.431Z,20.60
2019-05-12T16:13:59.510Z,20.60
2019-05-12T16:16:36.357Z,20.60
2019-05-12T16:19:04.504Z,20.60
2019-05-12T16:21:34.757Z,20.60
2019-05-12T16:24:11.109Z,20.60
2019-05-12T16:26:45.263Z,20.60
2019-05-12T16:29:10.292Z,20.60
2019-05-12T16:31:45.578Z,20.60
2019-05-12T16:34:13.831Z,20.60
2019-05-12T16:36:49.859Z,20.60
2019-05-12T16:39:16.805Z,20.60
2019-05-12T16:41:47.406Z,20.60
2019-05-12T16:44:22.964Z,20.60
2019-05-12T16:46:50.409Z,20.60
2019-05-12T16:49:24.959Z,20.70
2019-05-12T16:51:54.234Z,20.70
2019-05-12T16:54:28.247Z,20.70
2019-05-12T16:57:00.313Z,20.70
2019-05-12T16:59:31.303Z,20.70
2019-05-12T17:02:07.629Z,20.70
2019-05-12T17:04:34.130Z,20.70
2019-05-12T17:07:09.828Z,20.70
2019-05-12T17:09:37.042Z,20.70
2019-05-12T17:12:07.696Z,20.70
2019-05-12T17:14:48.012Z,20.70
2019-05-12T17:17:11.048Z,20.70
2019-05-12T17:19:43.385Z,20.70
2019-05-12T17:22:17.363Z,20.70
2019-05-12T17:24:47.010Z,20.70
2019-05-12T17:27:23.915Z,20.70
2019-05-12T17:29:49.881Z,20.70
2019-05-12T17:32:20.453Z,20.70
2019-05-12T17:34:53.289Z,20.70
2019-05-12T17:37:23.942Z,20.60
2019-05-12T17:39:54.647Z,20.60
2019-05-12T17:42:26.926Z,20.60
2019-05-12T17:44:58.110Z,20.60
2019-05-12T17:47:31.793Z,20.60
2019-05-12T17:50:06.737Z,20.60
2019-05-12T17:52:33.740Z,20.60
2019-05-12T17:55:10.348Z,20.60
2019-05-12T17:57:36.650Z,20.60
2019-05-12T18:00:10.561Z,20.60
2019-05-12T18:02:40.421Z,20.60
2019-05-12T18:05:14.798Z,20.50
2019-05-12T18:07:44.271Z,20.50
2019-05-12T18:10:15.440Z,20.50
2019-05-12T18:12:46.047Z,20.50
2019-05-12T18:15:24.917Z,20.50
2019-05-12T18:17:50.163Z,20.50
2019-05-12T18:20:23.634Z,20.50
2019-05-12T18:22:53.654Z,20.40
2019-05-12T18:25:30.516Z,20.40
2019-05-12T18:27:56.698Z,20.40
2019-05-12T18:30:27.449Z,20.40
2019-05-12T18:33:04.368Z,20.40
2019-05-12T18:35:31.371Z,20.40
2019-05-12T18:38:08.008Z,20.40
2019-05-12T18:40:35.703Z,20.30
2019-05-12T18:43:06.431Z,20.30
2019-05-12T18:45:37.170Z,20.30
2019-05-12T18:48:16.650Z,20.30
2019-05-12T18:50:40.223Z,20.30
2019-05-12T18:53:14.830Z,20.30
2019-05-12T18:55:44.883Z,20.20
2019-05-12T18:58:21.861Z,20.20
2019-05-12T19:00:48.037Z,20.10
2019-05-12T19:03:20.684Z,20.20
2019-05-12T19:05:54.630Z,20.20
2019-05-12T19:08:26.800Z,20.20
2019-05-12T19:10:57.454Z,20.20
2019-05-12T19:13:28.190Z,20.10
2019-05-12T19:16:02.879Z,20.10
2019-05-12T19:18:36.822Z,20.10
2019-05-12T19:21:04.583Z,20.10
2019-05-12T19:23:37.727Z,20.10
2019-05-12T19:26:08.019Z,20.10
2019-05-12T19:28:44.357Z,20.00
2019-05-12T19:31:14.016Z,20.00
2019-05-12T19:33:56.643Z,20.00
2019-05-12T19:36:16.595Z,20.00
2019-05-12T19:38:47.206Z,20.00
2019-05-12T19:41:17.789Z,20.00
2019-05-12T19:43:50.485Z,20.00
2019-05-12T19:46:21.068Z,20.00
2019-05-12T19:48:53.797Z,20.00
2019-05-12T19:51:27.242Z,19.90
2019-05-12T19:53:56.224Z,19.90
2019-05-12T19:56:34.508Z,19.90
2019-05-12T19:59:00.144Z,19.90
2019-05-12T20:01:34.190Z,19.90
2019-05-12T20:04:03.964Z,19.90
2019-05-12T20:06:34.539Z,19.80
2019-05-12T20:09:10.757Z,19.80
2019-05-12T20:11:39.267Z,19.80
2019-05-12T20:14:15.652Z,19.80
2019-05-12T20:16:43.926Z,19.80
2019-05-12T20:19:14.741Z,19.80
2019-05-12T20:21:45.628Z,19.80
2019-05-12T20:24:17.640Z,19.80
2019-05-12T20:26:48.426Z,19.70
2019-05-12T20:29:24.512Z,19.70
2019-05-12T20:31:53.815Z,19.70
2019-05-12T20:34:24.766Z,19.70
2019-05-12T20:36:59.142Z,19.70
2019-05-12T20:39:27.626Z,19.70
2019-05-12T20:42:00.899Z,19.60
2019-05-12T20:44:30.606Z,19.60
2019-05-12T20:47:06.007Z,19.60
2019-05-12T20:49:33.819Z,19.60
2019-05-12T20:52:08.997Z,19.60
2019-05-12T20:54:37.820Z,19.50
2019-05-12T20:57:08.579Z,19.60
2019-05-12T20:59:39.230Z,19.50
2019-05-12T21:02:09.757Z,19.50
2019-05-12T21:04:40.462Z,19.50
2019-05-12T21:07:14.092Z,19.50
2019-05-12T21:09:44.153Z,19.50
2019-05-12T21:12:14.960Z,19.50
2019-05-12T21:14:51.581Z,19.40
2019-05-12T21:17:18.448Z,19.40
2019-05-12T21:19:56.860Z,19.40
2019-05-12T21:22:23.739Z,19.40
2019-05-12T21:24:54.056Z,19.30
2019-05-12T21:27:24.649Z,19.30
2019-05-12T21:30:00.234Z,19.30
2019-05-12T21:32:27.649Z,19.30
2019-05-12T21:34:59.583Z,19.30
2019-05-12T21:37:30.288Z,19.20
2019-05-12T21:40:00.891Z,19.20
2019-05-12T21:42:33.431Z,19.20
2019-05-12T21:45:04.732Z,19.20
2019-05-12T21:47:42.731Z,19.20
2019-05-12T21:50:08.253Z,19.20
2019-05-12T21:52:39.373Z,19.10
2019-05-12T21:55:13.541Z,19.10
2019-05-12T21:57:43.796Z,19.10
2019-05-12T22:00:27.649Z,19.10
2019-05-12T22:03:02.649Z,19.00
2019-05-12T22:05:47.983Z,19.00
2019-05-12T22:08:12.668Z,19.00
2019-05-12T22:10:40.643Z,19.00
2019-05-12T22:13:16.881Z,19.00
2019-05-12T22:18:24.868Z,18.90
2019-05-12T22:21:01.568Z,18.90
2019-05-12T22:23:29.636Z,18.90
2019-05-12T22:26:00.593Z,18.90
2019-05-12T22:28:31.155Z,18.80
2019-05-12T22:31:03.402Z,18.80
2019-05-12T22:33:33.924Z,18.80
2019-05-12T22:36:13.886Z,18.80
2019-05-12T22:38:36.774Z,18.70
2019-05-12T22:41:07.382Z,18.70
2019-05-12T22:43:41.339Z,18.70
2019-05-12T22:46:10.282Z,18.60
2019-05-12T22:48:40.966Z,18.60
2019-05-12T22:51:22.979Z,18.60
2019-05-12T22:53:44.306Z,18.50
2019-05-12T22:56:18.070Z,18.50
2019-05-12T22:58:47.182Z,18.40
2019-05-12T23:01:17.752Z,18.40
2019-05-12T23:03:51.583Z,18.40
2019-05-12T23:06:25.089Z,18.40
2019-05-12T23:08:54.226Z,18.30
2019-05-12T23:11:31.942Z,18.30
2019-05-12T23:13:59.648Z,18.20
2019-05-12T23:16:30.228Z,18.20
2019-05-12T23:19:01.312Z,18.20
2019-05-12T23:21:33.085Z,18.10
2019-05-12T23:24:03.911Z,18.10
2019-05-12T23:26:41.776Z,18.10
2019-05-12T23:29:06.769Z,18.00
2019-05-12T23:31:37.358Z,18.00
2019-05-12T23:34:12.194Z,18.00
2019-05-12T23:36:40.174Z,17.90
2019-05-12T23:39:10.769Z,17.90
2019-05-12T23:41:43.549Z,17.90
2019-05-12T23:44:13.721Z,17.80
2019-05-12T23:46:44.368Z,17.80
2019-05-12T23:49:14.923Z,17.80
2019-05-12T23:51:45.575Z,17.80
2019-05-12T23:54:16.177Z,17.70
2019-05-12T23:56:46.776Z,17.70
2019-05-12T23:59:17.296Z,17.60
